sensor_id;sensor_type;location;lat;lon;timestamp;temperature;humidity
5520;DHT22;2782;52.362;10.012;2023-08-20T00:00:12;24.00;99.90
5520;DHT22;2782;52.362;10.012;2023-08-20T00:01:14;24.00;99.90
5520;DHT22;2782;52.362;10.012;2023-08-20T00:02:23;24.00;99.90
5520;DHT22;2782;52.362;10.012;2023-08-20T00:03:24;24.00;99.90
5520;DHT22;2782;52.362;10.012;2023-08-20T00:04:26;23.90;99.90
5520;DHT22;2782;52.362;10.012;2023-08-20T00:05:29;24.00;99.90
5520;DHT22;2782;52.362;10.012;2023-08-20T00:06:31;24.00;99.90
5520;DHT22;2782;52.362;10.012;2023-08-20T00:07:33;23.90;99.90
5520;DHT22;2782;52.362;10.012;2023-08-20T00:08:34;24.00;99.90
5520;DHT22;2782;52.362;10.012;2023-08-20T00:09:36;24.00;99.90
5520;DHT22;2782;52.362;10.012;2023-08-20T00:10:38;23.90;99.90
5520;DHT22;2782;52.362;10.012;2023-08-20T00:11:38;24.00;99.90
5520;DHT22;2782;52.362;10.012;2023-08-20T00:12:40;24.00;99.90
5520;DHT22;2782;52.362;10.012;2023-08-20T00:13:41;23.90;99.90
5520;DHT22;2782;52.362;10.012;2023-08-20T00:14:53;24.00;99.90
5520;DHT22;2782;52.362;10.012;2023-08-20T00:15:55;23.90;99.90
5520;DHT22;2782;52.362;10.012;2023-08-20T00:16:57;23.90;99.90
5520;DHT22;2782;52.362;10.012;2023-08-20T00:17:58;23.90;99.90
5520;DHT22;2782;52.362;10.012;2023-08-20T00:19:00;23.90;99.90
5520;DHT22;2782;52.362;10.012;2023-08-20T00:20:02;23.90;99.90
5520;DHT22;2782;52.362;10.012;2023-08-20T00:21:11;23.90;99.90
5520;DHT22;2782;52.362;10.012;2023-08-20T00:22:12;24.00;99.90
5520;DHT22;2782;52.362;10.012;2023-08-20T00:23:14;23.90;99.90
5520;DHT22;2782;52.362;10.012;2023-08-20T00:24:15;23.90;99.90
5520;DHT22;2782;52.362;10.012;2023-08-20T00:25:18;24.00;99.90
5520;DHT22;2782;52.362;10.012;2023-08-20T00:26:19;24.00;99.90
5520;DHT22;2782;52.362;10.012;2023-08-20T00:27:21;24.00;99.90
5520;DHT22;2782;52.362;10.012;2023-08-20T00:28:22;24.00;99.90
5520;DHT22;2782;52.362;10.012;2023-08-20T00:29:24;24.00;99.90
5520;DHT22;2782;52.362;10.012;2023-08-20T00:30:25;24.00;99.90
5520;DHT22;2782;52.362;10.012;2023-08-20T00:31:26;24.00;99.90
5520;DHT22;2782;52.362;10.012;2023-08-20T00:32:27;24.00;99.90
5520;DHT22;2782;52.362;10.012;2023-08-20T00:33:28;23.90;99.90
5520;DHT22;2782;52.362;10.012;2023-08-20T00:34:29;24.00;99.90
5520;DHT22;2782;52.362;10.012;2023-08-20T00:35:31;23.90;99.90
5520;DHT22;2782;52.362;10.012;2023-08-20T00:36:33;24.00;99.90
5520;DHT22;2782;52.362;10.012;2023-08-20T00:37:35;24.00;99.90
5520;DHT22;2782;52.362;10.012;2023-08-20T00:38:36;23.90;99.90
5520;DHT22;2782;52.362;10.012;2023-08-20T00:39:37;23.90;99.90
5520;DHT22;2782;52.362;10.012;2023-08-20T00:40:38;24.00;99.90
5520;DHT22;2782;52.362;10.012;2023-08-20T00:41:40;24.00;99.90
5520;DHT22;2782;52.362;10.012;2023-08-20T00:42:40;23.90;99.90
5520;DHT22;2782;52.362;10.012;2023-08-20T00:43:42;23.90;99.90
5520;DHT22;2782;52.362;10.012;2023-08-20T00:44:43;23.90;99.90
5520;DHT22;2782;52.362;10.012;2023-08-20T00:45:45;23.90;99.90
5520;DHT22;2782;52.362;10.012;2023-08-20T00:46:46;23.90;99.90
5520;DHT22;2782;52.362;10.012;2023-08-20T00:47:48;23.90;99.90
5520;DHT22;2782;52.362;10.012;2023-08-20T00:48:49;23.90;99.90
5520;DHT22;2782;52.362;10.012;2023-08-20T00:49:51;23.90;99.90
5520;DHT22;2782;52.362;10.012;2023-08-20T00:50:52;23.90;99.90
5520;DHT22;2782;52.362;10.012;2023-08-20T00:51:56;23.90;99.90
5520;DHT22;2782;52.362;10.012;2023-08-20T00:52:57;23.90;99.90
5520;DHT22;2782;52.362;10.012;2023-08-20T00:53:59;24.00;99.90
5520;DHT22;2782;52.362;10.012;2023-08-20T00:55:00;23.90;99.90
5520;DHT22;2782;52.362;10.012;2023-08-20T00:56:07;23.90;99.90
5520;DHT22;2782;52.362;10.012;2023-08-20T00:57:08;23.90;99.90
5520;DHT22;2782;52.362;10.012;2023-08-20T00:58:10;24.00;99.90
5520;DHT22;2782;52.362;10.012;2023-08-20T00:59:12;23.90;99.90
5520;DHT22;2782;52.362;10.012;2023-08-20T01:00:13;23.90;99.90
5520;DHT22;2782;52.362;10.012;2023-08-20T01:01:14;23.90;99.90
5520;DHT22;2782;52.362;10.012;2023-08-20T01:02:15;23.90;99.90
5520;DHT22;2782;52.362;10.012;2023-08-20T01:03:17;23.90;99.90
5520;DHT22;2782;52.362;10.012;2023-08-20T01:04:18;23.90;99.90
5520;DHT22;2782;52.362;10.012;2023-08-20T01:05:19;23.90;99.90
5520;DHT22;2782;52.362;10.012;2023-08-20T01:06:26;23.90;99.90
5520;DHT22;2782;52.362;10.012;2023-08-20T01:07:39;23.90;99.90
5520;DHT22;2782;52.362;10.012;2023-08-20T01:08:47;23.90;99.90
5520;DHT22;2782;52.362;10.012;2023-08-20T01:09:59;23.90;99.90
5520;DHT22;2782;52.362;10.012;2023-08-20T01:11:10;23.90;99.90
5520;DHT22;2782;52.362;10.012;2023-08-20T01:12:13;23.90;99.90
5520;DHT22;2782;52.362;10.012;2023-08-20T01:13:16;23.90;99.90
5520;DHT22;2782;52.362;10.012;2023-08-20T01:14:17;23.90;99.90
5520;DHT22;2782;52.362;10.012;2023-08-20T01:15:19;23.90;99.90
5520;DHT22;2782;52.362;10.012;2023-08-20T01:16:20;23.90;99.90
5520;DHT22;2782;52.362;10.012;2023-08-20T01:17:21;23.90;99.90
5520;DHT22;2782;52.362;10.012;2023-08-20T01:18:23;23.90;99.90
5520;DHT22;2782;52.362;10.012;2023-08-20T01:19:25;23.90;99.90
5520;DHT22;2782;52.362;10.012;2023-08-20T01:20:30;23.90;99.90
5520;DHT22;2782;52.362;10.012;2023-08-20T01:21:38;23.90;99.90
5520;DHT22;2782;52.362;10.012;2023-08-20T01:23:09;23.90;99.90
5520;DHT22;2782;52.362;10.012;2023-08-20T01:24:23;23.90;99.90
5520;DHT22;2782;52.362;10.012;2023-08-20T01:25:37;23.90;99.90
5520;DHT22;2782;52.362;10.012;2023-08-20T01:26:56;23.90;99.90
5520;DHT22;2782;52.362;10.012;2023-08-20T01:28:18;23.90;99.90
5520;DHT22;2782;52.362;10.012;2023-08-20T01:29:20;23.90;99.90
5520;DHT22;2782;52.362;10.012;2023-08-20T01:30:22;23.80;99.90
5520;DHT22;2782;52.362;10.012;2023-08-20T01:31:26;23.90;99.90
5520;DHT22;2782;52.362;10.012;2023-08-20T01:32:27;23.80;99.90
5520;DHT22;2782;52.362;10.012;2023-08-20T01:33:28;23.80;99.90
5520;DHT22;2782;52.362;10.012;2023-08-20T01:34:30;23.80;99.90
5520;DHT22;2782;52.362;10.012;2023-08-20T01:35:31;23.80;99.90
5520;DHT22;2782;52.362;10.012;2023-08-20T01:36:34;23.80;99.90
5520;DHT22;2782;52.362;10.012;2023-08-20T01:37:35;23.80;99.90
5520;DHT22;2782;52.362;10.012;2023-08-20T01:38:37;23.80;99.90
5520;DHT22;2782;52.362;10.012;2023-08-20T01:39:38;23.80;99.90
5520;DHT22;2782;52.362;10.012;2023-08-20T01:40:39;23.80;99.90
5520;DHT22;2782;52.362;10.012;2023-08-20T01:41:40;23.80;99.90
5520;DHT22;2782;52.362;10.012;2023-08-20T01:42:42;23.70;99.90
5520;DHT22;2782;52.362;10.012;2023-08-20T01:43:44;23.70;99.90
5520;DHT22;2782;52.362;10.012;2023-08-20T01:44:46;23.80;99.90
5520;DHT22;2782;52.362;10.012;2023-08-20T01:45:46;23.70;99.90
5520;DHT22;2782;52.362;10.012;2023-08-20T01:46:48;23.70;99.90
5520;DHT22;2782;52.362;10.012;2023-08-20T01:47:49;23.70;99.90
5520;DHT22;2782;52.362;10.012;2023-08-20T01:48:50;23.70;99.90
5520;DHT22;2782;52.362;10.012;2023-08-20T01:49:51;23.70;99.90
5520;DHT22;2782;52.362;10.012;2023-08-20T01:50:53;23.70;99.90
5520;DHT22;2782;52.362;10.012;2023-08-20T01:51:54;23.70;99.90
5520;DHT22;2782;52.362;10.012;2023-08-20T01:52:55;23.70;99.90
5520;DHT22;2782;52.362;10.012;2023-08-20T01:53:56;23.70;99.90
5520;DHT22;2782;52.362;10.012;2023-08-20T01:54:58;23.70;99.90
5520;DHT22;2782;52.362;10.012;2023-08-20T01:55:58;23.70;99.90
5520;DHT22;2782;52.362;10.012;2023-08-20T01:57:00;23.70;99.90
5520;DHT22;2782;52.362;10.012;2023-08-20T01:58:01;23.70;99.90
5520;DHT22;2782;52.362;10.012;2023-08-20T01:59:04;23.70;99.90
5520;DHT22;2782;52.362;10.012;2023-08-20T02:00:06;23.70;99.90
5520;DHT22;2782;52.362;10.012;2023-08-20T02:01:08;23.70;99.90
5520;DHT22;2782;52.362;10.012;2023-08-20T02:05:16;23.70;99.90
5520;DHT22;2782;52.362;10.012;2023-08-20T02:06:18;23.70;99.90
5520;DHT22;2782;52.362;10.012;2023-08-20T02:07:20;23.70;99.90
5520;DHT22;2782;52.362;10.012;2023-08-20T02:08:21;23.60;99.90
5520;DHT22;2782;52.362;10.012;2023-08-20T02:09:22;23.60;99.90
5520;DHT22;2782;52.362;10.012;2023-08-20T02:10:24;23.60;99.90
5520;DHT22;2782;52.362;10.012;2023-08-20T02:11:25;23.60;99.90
5520;DHT22;2782;52.362;10.012;2023-08-20T02:12:26;23.60;99.90
5520;DHT22;2782;52.362;10.012;2023-08-20T02:13:27;23.50;99.90
5520;DHT22;2782;52.362;10.012;2023-08-20T02:14:30;23.50;99.90
5520;DHT22;2782;52.362;10.012;2023-08-20T02:15:35;23.60;99.90
5520;DHT22;2782;52.362;10.012;2023-08-20T02:16:35;23.60;99.90
5520;DHT22;2782;52.362;10.012;2023-08-20T02:17:37;23.50;99.90
5520;DHT22;2782;52.362;10.012;2023-08-20T02:18:38;23.50;99.90
5520;DHT22;2782;52.362;10.012;2023-08-20T02:19:40;23.50;99.90
5520;DHT22;2782;52.362;10.012;2023-08-20T02:20:43;23.50;99.90
5520;DHT22;2782;52.362;10.012;2023-08-20T02:21:45;23.50;99.90
5520;DHT22;2782;52.362;10.012;2023-08-20T02:22:45;23.50;99.90
5520;DHT22;2782;52.362;10.012;2023-08-20T02:23:47;23.50;99.90
5520;DHT22;2782;52.362;10.012;2023-08-20T02:24:48;23.50;99.90
5520;DHT22;2782;52.362;10.012;2023-08-20T02:25:49;23.50;99.90
5520;DHT22;2782;52.362;10.012;2023-08-20T02:26:50;23.50;99.90
5520;DHT22;2782;52.362;10.012;2023-08-20T02:27:52;23.50;99.90
5520;DHT22;2782;52.362;10.012;2023-08-20T02:28:52;23.50;99.90
5520;DHT22;2782;52.362;10.012;2023-08-20T02:29:55;23.50;99.90
5520;DHT22;2782;52.362;10.012;2023-08-20T02:30:56;23.40;99.90
5520;DHT22;2782;52.362;10.012;2023-08-20T02:32:00;23.40;99.90
5520;DHT22;2782;52.362;10.012;2023-08-20T02:33:01;23.40;99.90
5520;DHT22;2782;52.362;10.012;2023-08-20T02:34:03;23.40;99.90
5520;DHT22;2782;52.362;10.012;2023-08-20T02:35:04;23.40;99.90
5520;DHT22;2782;52.362;10.012;2023-08-20T02:36:06;23.40;99.90
5520;DHT22;2782;52.362;10.012;2023-08-20T02:37:07;23.40;99.90
5520;DHT22;2782;52.362;10.012;2023-08-20T02:38:09;23.40;99.90
5520;DHT22;2782;52.362;10.012;2023-08-20T02:39:10;23.40;99.90
5520;DHT22;2782;52.362;10.012;2023-08-20T02:40:11;23.40;99.90
5520;DHT22;2782;52.362;10.012;2023-08-20T02:41:13;23.40;99.90
5520;DHT22;2782;52.362;10.012;2023-08-20T02:42:15;23.30;99.90
5520;DHT22;2782;52.362;10.012;2023-08-20T02:43:16;23.30;99.90
5520;DHT22;2782;52.362;10.012;2023-08-20T02:44:17;23.30;99.90
5520;DHT22;2782;52.362;10.012;2023-08-20T02:45:19;23.30;99.90
5520;DHT22;2782;52.362;10.012;2023-08-20T02:46:21;23.30;99.90
5520;DHT22;2782;52.362;10.012;2023-08-20T02:47:22;23.20;99.90
5520;DHT22;2782;52.362;10.012;2023-08-20T02:48:23;23.30;99.90
5520;DHT22;2782;52.362;10.012;2023-08-20T02:49:27;23.20;99.90
5520;DHT22;2782;52.362;10.012;2023-08-20T02:50:29;23.20;99.90
5520;DHT22;2782;52.362;10.012;2023-08-20T02:51:30;23.20;99.90
5520;DHT22;2782;52.362;10.012;2023-08-20T02:52:32;23.20;99.90
5520;DHT22;2782;52.362;10.012;2023-08-20T02:53:33;23.20;99.90
5520;DHT22;2782;52.362;10.012;2023-08-20T02:54:35;23.20;99.90
5520;DHT22;2782;52.362;10.012;2023-08-20T02:55:35;23.20;99.90
5520;DHT22;2782;52.362;10.012;2023-08-20T02:56:36;23.20;99.90
5520;DHT22;2782;52.362;10.012;2023-08-20T02:57:38;23.10;99.90
5520;DHT22;2782;52.362;10.012;2023-08-20T02:58:38;23.20;99.90
5520;DHT22;2782;52.362;10.012;2023-08-20T02:59:40;23.10;99.90
5520;DHT22;2782;52.362;10.012;2023-08-20T03:00:44;23.10;99.90
5520;DHT22;2782;52.362;10.012;2023-08-20T03:01:45;23.10;99.90
5520;DHT22;2782;52.362;10.012;2023-08-20T03:02:47;23.10;99.90
5520;DHT22;2782;52.362;10.012;2023-08-20T03:03:48;23.10;99.90
5520;DHT22;2782;52.362;10.012;2023-08-20T03:04:49;23.10;99.90
5520;DHT22;2782;52.362;10.012;2023-08-20T03:05:50;23.10;99.90
5520;DHT22;2782;52.362;10.012;2023-08-20T03:06:52;23.10;99.90
5520;DHT22;2782;52.362;10.012;2023-08-20T03:07:53;23.10;99.90
5520;DHT22;2782;52.362;10.012;2023-08-20T03:08:54;23.10;99.90
5520;DHT22;2782;52.362;10.012;2023-08-20T03:09:55;23.10;99.90
5520;DHT22;2782;52.362;10.012;2023-08-20T03:10:57;23.10;99.90
5520;DHT22;2782;52.362;10.012;2023-08-20T03:11:57;23.10;99.90
5520;DHT22;2782;52.362;10.012;2023-08-20T03:12:59;23.00;99.90
5520;DHT22;2782;52.362;10.012;2023-08-20T03:14:01;23.00;99.90
5520;DHT22;2782;52.362;10.012;2023-08-20T03:15:04;23.00;99.90
5520;DHT22;2782;52.362;10.012;2023-08-20T03:16:06;23.00;99.90
5520;DHT22;2782;52.362;10.012;2023-08-20T03:17:07;23.00;99.90
5520;DHT22;2782;52.362;10.012;2023-08-20T03:18:08;23.00;99.90
5520;DHT22;2782;52.362;10.012;2023-08-20T03:19:10;23.00;99.90
5520;DHT22;2782;52.362;10.012;2023-08-20T03:20:11;23.00;99.90
5520;DHT22;2782;52.362;10.012;2023-08-20T03:21:13;23.00;99.90
5520;DHT22;2782;52.362;10.012;2023-08-20T03:22:14;23.00;99.90
5520;DHT22;2782;52.362;10.012;2023-08-20T03:23:16;22.90;99.90
5520;DHT22;2782;52.362;10.012;2023-08-20T03:24:16;23.00;99.90
5520;DHT22;2782;52.362;10.012;2023-08-20T03:25:18;22.90;99.90
5520;DHT22;2782;52.362;10.012;2023-08-20T03:26:19;22.90;99.90
5520;DHT22;2782;52.362;10.012;2023-08-20T03:27:20;22.90;99.90
5520;DHT22;2782;52.362;10.012;2023-08-20T03:28:21;22.90;99.90
5520;DHT22;2782;52.362;10.012;2023-08-20T03:29:23;22.90;99.90
5520;DHT22;2782;52.362;10.012;2023-08-20T03:30:23;22.90;99.90
5520;DHT22;2782;52.362;10.012;2023-08-20T03:31:26;22.90;99.90
5520;DHT22;2782;52.362;10.012;2023-08-20T03:32:27;22.90;99.90
5520;DHT22;2782;52.362;10.012;2023-08-20T03:33:29;22.90;99.90
5520;DHT22;2782;52.362;10.012;2023-08-20T03:34:30;22.90;99.90
5520;DHT22;2782;52.362;10.012;2023-08-20T03:35:31;22.90;99.90
5520;DHT22;2782;52.362;10.012;2023-08-20T03:36:32;22.90;99.90
5520;DHT22;2782;52.362;10.012;2023-08-20T03:37:34;22.90;99.90
5520;DHT22;2782;52.362;10.012;2023-08-20T03:38:34;22.90;99.90
5520;DHT22;2782;52.362;10.012;2023-08-20T03:39:36;22.90;99.90
5520;DHT22;2782;52.362;10.012;2023-08-20T03:40:37;22.90;99.90
5520;DHT22;2782;52.362;10.012;2023-08-20T03:41:38;22.90;99.90
5520;DHT22;2782;52.362;10.012;2023-08-20T03:42:39;22.90;99.90
5520;DHT22;2782;52.362;10.012;2023-08-20T03:43:41;22.90;99.90
5520;DHT22;2782;52.362;10.012;2023-08-20T03:44:41;22.90;99.90
5520;DHT22;2782;52.362;10.012;2023-08-20T03:45:43;22.90;99.90
5520;DHT22;2782;52.362;10.012;2023-08-20T03:46:45;22.90;99.90
5520;DHT22;2782;52.362;10.012;2023-08-20T03:47:47;22.90;99.90
5520;DHT22;2782;52.362;10.012;2023-08-20T03:48:47;22.90;99.90
5520;DHT22;2782;52.362;10.012;2023-08-20T03:49:49;22.90;99.90
5520;DHT22;2782;52.362;10.012;2023-08-20T03:50:50;22.90;99.90
5520;DHT22;2782;52.362;10.012;2023-08-20T03:51:51;22.90;99.90
5520;DHT22;2782;52.362;10.012;2023-08-20T03:52:52;22.90;99.90
5520;DHT22;2782;52.362;10.012;2023-08-20T03:53:54;22.90;99.90
5520;DHT22;2782;52.362;10.012;2023-08-20T03:54:54;22.90;99.90
5520;DHT22;2782;52.362;10.012;2023-08-20T03:55:56;22.90;99.90
5520;DHT22;2782;52.362;10.012;2023-08-20T03:56:57;22.90;99.90
5520;DHT22;2782;52.362;10.012;2023-08-20T03:57:58;22.90;99.90
5520;DHT22;2782;52.362;10.012;2023-08-20T03:58:59;22.80;99.90
5520;DHT22;2782;52.362;10.012;2023-08-20T04:00:01;22.80;99.90
5520;DHT22;2782;52.362;10.012;2023-08-20T04:01:03;22.90;99.90
5520;DHT22;2782;52.362;10.012;2023-08-20T04:02:06;22.90;99.90
5520;DHT22;2782;52.362;10.012;2023-08-20T04:03:07;22.80;99.90
5520;DHT22;2782;52.362;10.012;2023-08-20T04:04:09;22.90;99.90
5520;DHT22;2782;52.362;10.012;2023-08-20T04:05:09;22.90;99.90
5520;DHT22;2782;52.362;10.012;2023-08-20T04:06:11;22.80;99.90
5520;DHT22;2782;52.362;10.012;2023-08-20T04:07:12;22.80;99.90
5520;DHT22;2782;52.362;10.012;2023-08-20T04:08:13;22.80;99.90
5520;DHT22;2782;52.362;10.012;2023-08-20T04:09:14;22.90;99.90
5520;DHT22;2782;52.362;10.012;2023-08-20T04:10:17;22.90;99.90
5520;DHT22;2782;52.362;10.012;2023-08-20T04:11:17;22.80;99.90
5520;DHT22;2782;52.362;10.012;2023-08-20T04:12:19;22.80;99.90
5520;DHT22;2782;52.362;10.012;2023-08-20T04:13:20;22.80;99.90
5520;DHT22;2782;52.362;10.012;2023-08-20T04:14:21;22.90;99.90
5520;DHT22;2782;52.362;10.012;2023-08-20T04:15:22;22.90;99.90
5520;DHT22;2782;52.362;10.012;2023-08-20T04:16:24;22.90;99.90
5520;DHT22;2782;52.362;10.012;2023-08-20T04:17:26;22.80;99.90
5520;DHT22;2782;52.362;10.012;2023-08-20T04:18:28;22.80;99.90
5520;DHT22;2782;52.362;10.012;2023-08-20T04:19:29;22.80;99.90
5520;DHT22;2782;52.362;10.012;2023-08-20T04:20:31;22.80;99.90
5520;DHT22;2782;52.362;10.012;2023-08-20T04:21:31;22.80;99.90
5520;DHT22;2782;52.362;10.012;2023-08-20T04:22:33;22.80;99.90
5520;DHT22;2782;52.362;10.012;2023-08-20T04:23:34;22.80;99.90
5520;DHT22;2782;52.362;10.012;2023-08-20T04:24:35;22.80;99.90
5520;DHT22;2782;52.362;10.012;2023-08-20T04:25:36;22.80;99.90
5520;DHT22;2782;52.362;10.012;2023-08-20T04:26:37;22.80;99.90
5520;DHT22;2782;52.362;10.012;2023-08-20T04:27:39;22.80;99.90
5520;DHT22;2782;52.362;10.012;2023-08-20T04:28:39;22.80;99.90
5520;DHT22;2782;52.362;10.012;2023-08-20T04:29:41;22.80;99.90
5520;DHT22;2782;52.362;10.012;2023-08-20T04:30:42;22.80;99.90
5520;DHT22;2782;52.362;10.012;2023-08-20T04:31:44;22.80;99.90
5520;DHT22;2782;52.362;10.012;2023-08-20T04:32:46;22.80;99.90
5520;DHT22;2782;52.362;10.012;2023-08-20T04:33:48;22.80;99.90
5520;DHT22;2782;52.362;10.012;2023-08-20T04:34:49;22.80;99.90
5520;DHT22;2782;52.362;10.012;2023-08-20T04:35:52;22.80;99.90
5520;DHT22;2782;52.362;10.012;2023-08-20T04:36:54;22.80;99.90
5520;DHT22;2782;52.362;10.012;2023-08-20T04:37:58;22.80;99.90
5520;DHT22;2782;52.362;10.012;2023-08-20T04:38:59;22.80;99.90
5520;DHT22;2782;52.362;10.012;2023-08-20T04:40:00;22.80;99.90
5520;DHT22;2782;52.362;10.012;2023-08-20T04:41:01;22.80;99.90
5520;DHT22;2782;52.362;10.012;2023-08-20T04:42:03;22.80;99.90
5520;DHT22;2782;52.362;10.012;2023-08-20T04:43:04;22.80;99.90
5520;DHT22;2782;52.362;10.012;2023-08-20T04:44:05;22.80;99.90
5520;DHT22;2782;52.362;10.012;2023-08-20T04:45:07;22.70;99.90
5520;DHT22;2782;52.362;10.012;2023-08-20T04:46:09;22.80;99.90
5520;DHT22;2782;52.362;10.012;2023-08-20T04:47:11;22.80;99.90
5520;DHT22;2782;52.362;10.012;2023-08-20T04:48:14;22.80;99.90
5520;DHT22;2782;52.362;10.012;2023-08-20T04:49:15;22.80;99.90
5520;DHT22;2782;52.362;10.012;2023-08-20T04:50:16;22.70;99.90
5520;DHT22;2782;52.362;10.012;2023-08-20T04:51:17;22.80;99.90
5520;DHT22;2782;52.362;10.012;2023-08-20T04:52:19;22.70;99.90
5520;DHT22;2782;52.362;10.012;2023-08-20T04:53:20;22.80;99.90
5520;DHT22;2782;52.362;10.012;2023-08-20T04:54:22;22.80;99.90
5520;DHT22;2782;52.362;10.012;2023-08-20T04:55:23;22.80;99.90
5520;DHT22;2782;52.362;10.012;2023-08-20T04:56:24;22.80;99.90
5520;DHT22;2782;52.362;10.012;2023-08-20T04:57:25;22.80;99.90
5520;DHT22;2782;52.362;10.012;2023-08-20T04:58:27;22.80;99.90
5520;DHT22;2782;52.362;10.012;2023-08-20T04:59:28;22.80;99.90
5520;DHT22;2782;52.362;10.012;2023-08-20T05:00:29;22.80;99.90
5520;DHT22;2782;52.362;10.012;2023-08-20T05:01:30;22.70;99.90
5520;DHT22;2782;52.362;10.012;2023-08-20T05:02:32;22.80;99.90
5520;DHT22;2782;52.362;10.012;2023-08-20T05:03:34;22.80;99.90
5520;DHT22;2782;52.362;10.012;2023-08-20T05:04:35;22.80;99.90
5520;DHT22;2782;52.362;10.012;2023-08-20T05:05:36;22.80;99.90
5520;DHT22;2782;52.362;10.012;2023-08-20T05:06:38;22.70;99.90
5520;DHT22;2782;52.362;10.012;2023-08-20T05:07:38;22.70;99.90
5520;DHT22;2782;52.362;10.012;2023-08-20T05:08:40;22.70;99.90
5520;DHT22;2782;52.362;10.012;2023-08-20T05:09:41;22.80;99.90
5520;DHT22;2782;52.362;10.012;2023-08-20T05:10:43;22.80;99.90
5520;DHT22;2782;52.362;10.012;2023-08-20T05:11:44;22.80;99.90
5520;DHT22;2782;52.362;10.012;2023-08-20T05:12:45;22.80;99.90
5520;DHT22;2782;52.362;10.012;2023-08-20T05:13:47;22.80;99.90
5520;DHT22;2782;52.362;10.012;2023-08-20T05:14:49;22.80;99.90
5520;DHT22;2782;52.362;10.012;2023-08-20T05:15:49;22.80;99.90
5520;DHT22;2782;52.362;10.012;2023-08-20T05:16:51;22.80;99.90
5520;DHT22;2782;52.362;10.012;2023-08-20T05:17:52;22.80;99.90
5520;DHT22;2782;52.362;10.012;2023-08-20T05:18:55;22.80;99.90
5520;DHT22;2782;52.362;10.012;2023-08-20T05:19:55;22.80;99.90
5520;DHT22;2782;52.362;10.012;2023-08-20T05:20:57;22.80;99.90
5520;DHT22;2782;52.362;10.012;2023-08-20T05:21:58;22.80;99.90
5520;DHT22;2782;52.362;10.012;2023-08-20T05:23:00;22.80;99.90
5520;DHT22;2782;52.362;10.012;2023-08-20T05:24:01;22.90;99.90
5520;DHT22;2782;52.362;10.012;2023-08-20T05:25:02;22.90;99.90
5520;DHT22;2782;52.362;10.012;2023-08-20T05:26:03;22.80;99.90
5520;DHT22;2782;52.362;10.012;2023-08-20T05:27:09;22.90;99.90
5520;DHT22;2782;52.362;10.012;2023-08-20T05:28:10;22.80;99.90
5520;DHT22;2782;52.362;10.012;2023-08-20T05:29:11;22.80;99.90
5520;DHT22;2782;52.362;10.012;2023-08-20T05:30:12;22.90;99.90
5520;DHT22;2782;52.362;10.012;2023-08-20T05:31:14;22.90;99.90
5520;DHT22;2782;52.362;10.012;2023-08-20T05:32:15;22.80;99.90
5520;DHT22;2782;52.362;10.012;2023-08-20T05:33:16;22.90;99.90
5520;DHT22;2782;52.362;10.012;2023-08-20T05:34:18;22.80;99.90
5520;DHT22;2782;52.362;10.012;2023-08-20T05:35:20;22.90;99.90
5520;DHT22;2782;52.362;10.012;2023-08-20T05:36:21;22.90;99.90
5520;DHT22;2782;52.362;10.012;2023-08-20T05:37:22;22.90;99.90
5520;DHT22;2782;52.362;10.012;2023-08-20T05:38:23;22.90;99.90
5520;DHT22;2782;52.362;10.012;2023-08-20T05:39:25;23.00;99.90
5520;DHT22;2782;52.362;10.012;2023-08-20T05:40:26;22.90;99.90
5520;DHT22;2782;52.362;10.012;2023-08-20T05:41:27;22.90;99.90
5520;DHT22;2782;52.362;10.012;2023-08-20T05:42:28;22.90;99.90
5520;DHT22;2782;52.362;10.012;2023-08-20T05:43:30;22.90;99.90
5520;DHT22;2782;52.362;10.012;2023-08-20T05:44:31;22.90;99.90
5520;DHT22;2782;52.362;10.012;2023-08-20T05:45:33;22.90;99.90
5520;DHT22;2782;52.362;10.012;2023-08-20T05:46:34;22.90;99.90
5520;DHT22;2782;52.362;10.012;2023-08-20T05:47:35;22.90;99.90
5520;DHT22;2782;52.362;10.012;2023-08-20T05:48:37;22.90;99.90
5520;DHT22;2782;52.362;10.012;2023-08-20T05:49:39;22.90;99.90
5520;DHT22;2782;52.362;10.012;2023-08-20T05:50:40;22.90;99.90
5520;DHT22;2782;52.362;10.012;2023-08-20T05:51:42;22.90;99.90
5520;DHT22;2782;52.362;10.012;2023-08-20T05:52:43;22.90;99.90
5520;DHT22;2782;52.362;10.012;2023-08-20T05:53:44;22.90;99.90
5520;DHT22;2782;52.362;10.012;2023-08-20T05:54:46;22.90;99.90
5520;DHT22;2782;52.362;10.012;2023-08-20T05:55:49;22.90;99.90
5520;DHT22;2782;52.362;10.012;2023-08-20T05:56:50;22.80;99.90
5520;DHT22;2782;52.362;10.012;2023-08-20T05:57:51;22.90;99.90
5520;DHT22;2782;52.362;10.012;2023-08-20T05:58:53;22.80;99.90
5520;DHT22;2782;52.362;10.012;2023-08-20T05:59:54;22.80;99.90
5520;DHT22;2782;52.362;10.012;2023-08-20T06:00:56;22.80;99.90
5520;DHT22;2782;52.362;10.012;2023-08-20T06:01:57;22.80;99.90
5520;DHT22;2782;52.362;10.012;2023-08-20T06:02:59;22.80;99.90
5520;DHT22;2782;52.362;10.012;2023-08-20T06:04:00;22.80;99.90
5520;DHT22;2782;52.362;10.012;2023-08-20T06:05:04;22.80;99.90
5520;DHT22;2782;52.362;10.012;2023-08-20T06:06:05;22.80;99.90
5520;DHT22;2782;52.362;10.012;2023-08-20T06:07:06;22.80;99.90
5520;DHT22;2782;52.362;10.012;2023-08-20T06:08:07;22.80;99.90
5520;DHT22;2782;52.362;10.012;2023-08-20T06:09:09;22.80;99.90
5520;DHT22;2782;52.362;10.012;2023-08-20T06:10:09;22.80;99.90
5520;DHT22;2782;52.362;10.012;2023-08-20T06:11:12;22.80;99.90
5520;DHT22;2782;52.362;10.012;2023-08-20T06:12:12;22.80;99.90
5520;DHT22;2782;52.362;10.012;2023-08-20T06:13:14;22.80;99.90
5520;DHT22;2782;52.362;10.012;2023-08-20T06:14:15;22.80;99.90
5520;DHT22;2782;52.362;10.012;2023-08-20T06:15:16;22.80;99.90
5520;DHT22;2782;52.362;10.012;2023-08-20T06:16:17;22.80;99.90
5520;DHT22;2782;52.362;10.012;2023-08-20T06:17:18;22.80;99.90
5520;DHT22;2782;52.362;10.012;2023-08-20T06:18:20;22.80;99.90
5520;DHT22;2782;52.362;10.012;2023-08-20T06:19:20;22.80;99.90
5520;DHT22;2782;52.362;10.012;2023-08-20T06:20:23;22.90;99.90
5520;DHT22;2782;52.362;10.012;2023-08-20T06:21:24;22.90;99.90
5520;DHT22;2782;52.362;10.012;2023-08-20T06:22:26;22.90;99.90
5520;DHT22;2782;52.362;10.012;2023-08-20T06:23:26;22.90;99.90
5520;DHT22;2782;52.362;10.012;2023-08-20T06:24:28;23.00;99.90
5520;DHT22;2782;52.362;10.012;2023-08-20T06:25:29;23.00;99.90
5520;DHT22;2782;52.362;10.012;2023-08-20T06:26:30;23.00;99.90
5520;DHT22;2782;52.362;10.012;2023-08-20T06:27:31;23.10;99.90
5520;DHT22;2782;52.362;10.012;2023-08-20T06:28:32;23.10;99.90
5520;DHT22;2782;52.362;10.012;2023-08-20T06:29:33;23.10;99.90
5520;DHT22;2782;52.362;10.012;2023-08-20T06:30:35;23.10;99.90
5520;DHT22;2782;52.362;10.012;2023-08-20T06:31:36;23.10;99.90
5520;DHT22;2782;52.362;10.012;2023-08-20T06:32:37;23.10;99.90
5520;DHT22;2782;52.362;10.012;2023-08-20T06:33:38;23.10;99.90
5520;DHT22;2782;52.362;10.012;2023-08-20T06:34:39;23.10;99.90
5520;DHT22;2782;52.362;10.012;2023-08-20T06:35:41;23.20;99.90
5520;DHT22;2782;52.362;10.012;2023-08-20T06:36:43;23.20;99.90
5520;DHT22;2782;52.362;10.012;2023-08-20T06:37:44;23.20;99.90
5520;DHT22;2782;52.362;10.012;2023-08-20T06:38:45;23.20;99.90
5520;DHT22;2782;52.362;10.012;2023-08-20T06:39:46;23.20;99.90